createdAt,value
2023-05-26T00:02:29.068Z,100365.72
2023-05-26T00:05:31.833Z,100367.97
2023-05-26T00:08:34.173Z,100372.41
2023-05-26T00:11:39.903Z,100366.19
2023-05-26T00:14:42.366Z,100372.03
2023-05-26T00:17:48.556Z,100372.63
2023-05-26T00:20:51.366Z,100375.56
2023-05-26T00:23:54.456Z,100370.56
2023-05-26T00:26:59.201Z,100369.78
2023-05-26T00:30:02.760Z,100383.66
2023-05-26T00:33:05.757Z,100381.59
2023-05-26T00:36:08.834Z,100372.84
2023-05-26T00:39:11.446Z,100375.94
2023-05-26T00:42:14.249Z,100378.19
2023-05-26T00:45:16.709Z,100372.91
2023-05-26T00:48:19.420Z,100374.88
2023-05-26T00:51:22.028Z,100366.28
2023-05-26T00:54:24.978Z,100370.16
2023-05-26T00:57:30.620Z,100371.31
2023-05-26T01:00:35.120Z,100368.81
2023-05-26T01:03:40.847Z,100370.22
2023-05-26T01:06:46.105Z,100370.69
2023-05-26T01:09:52.362Z,100380.94
2023-05-26T01:12:59.510Z,100377.19
2023-05-26T01:16:08.308Z,100375.00
2023-05-26T01:19:30.090Z,100374.75
2023-05-26T01:22:49.915Z,100376.16
2023-05-26T01:26:15.616Z,100367.88
2023-05-26T01:29:21.642Z,100369.00
2023-05-26T01:32:25.944Z,100370.94
2023-05-26T01:35:28.590Z,100367.91
2023-05-26T01:38:31.785Z,100367.62
2023-05-26T01:41:43.404Z,100364.31
2023-05-26T01:44:51.605Z,100362.81
2023-05-26T01:47:58.876Z,100365.84
2023-05-26T01:51:02.889Z,100359.63
2023-05-26T01:54:09.791Z,100362.94
2023-05-26T01:57:15.229Z,100358.94
2023-05-26T02:00:27.638Z,100367.66
2023-05-26T02:03:30.487Z,100367.41
2023-05-26T02:06:33.093Z,100362.97
2023-05-26T02:09:37.883Z,100358.53
2023-05-26T02:12:40.746Z,100360.47
2023-05-26T02:15:47.587Z,100365.72
2023-05-26T02:18:52.916Z,100352.59
2023-05-26T02:21:55.784Z,100354.28
2023-05-26T02:24:58.559Z,100356.91
2023-05-26T02:28:01.073Z,100362.97
2023-05-26T02:31:03.999Z,100363.22
2023-05-26T02:34:10.972Z,100355.22
2023-05-26T02:37:14.249Z,100361.88
2023-05-26T02:40:16.844Z,100362.16
2023-05-26T02:43:21.506Z,100368.34
2023-05-26T02:46:24.196Z,100372.91
2023-05-26T02:49:26.959Z,100376.09
2023-05-26T02:52:29.571Z,100374.31
2023-05-26T02:55:32.419Z,100368.75
2023-05-26T02:58:35.007Z,100380.09
2023-05-26T03:01:38.711Z,100376.63
2023-05-26T03:04:44.121Z,100368.47
2023-05-26T03:07:46.914Z,100371.94
2023-05-26T03:11:10.529Z,100370.13
2023-05-26T03:14:20.187Z,100376.75
2023-05-26T03:17:22.885Z,100378.72
2023-05-26T03:20:26.038Z,100373.97
2023-05-26T03:23:29.711Z,100373.84
2023-05-26T03:26:32.758Z,100372.59
2023-05-26T03:29:35.886Z,100374.91
2023-05-26T03:32:39.460Z,100369.25
2023-05-26T03:35:41.939Z,100373.06
2023-05-26T03:38:45.206Z,100369.91
2023-05-26T03:41:48.047Z,100368.34
2023-05-26T03:44:52.440Z,100369.53
2023-05-26T03:47:56.548Z,100370.78
2023-05-26T03:50:59.287Z,100373.78
2023-05-26T03:54:02.253Z,100369.47
2023-05-26T03:57:08.976Z,100368.44
2023-05-26T04:00:12.562Z,100371.44
2023-05-26T04:03:21.299Z,100373.34
2023-05-26T04:06:24.731Z,100373.31
2023-05-26T04:09:27.823Z,100371.34
2023-05-26T04:12:30.647Z,100366.84
2023-05-26T04:15:33.084Z,100368.44
2023-05-26T04:18:41.161Z,100376.37
2023-05-26T04:21:43.641Z,100365.44
2023-05-26T04:24:46.636Z,100363.53
2023-05-26T04:27:49.746Z,100366.75
2023-05-26T04:30:54.999Z,100365.69
2023-05-26T04:34:00.092Z,100363.91
2023-05-26T04:37:05.748Z,100371.44
2023-05-26T04:40:10.837Z,100365.25
2023-05-26T04:43:14.434Z,100372.75
2023-05-26T04:46:17.775Z,100373.09
2023-05-26T04:49:23.946Z,100380.75
2023-05-26T04:52:28.014Z,100381.59
2023-05-26T04:55:31.601Z,100383.00
2023-05-26T04:58:34.318Z,100394.56
2023-05-26T05:01:37.609Z,100384.03
2023-05-26T05:04:46.698Z,100392.97
2023-05-26T05:07:52.126Z,100391.72
2023-05-26T05:10:55.223Z,100399.66
2023-05-26T05:14:00.163Z,100398.41
2023-05-26T05:17:05.851Z,100407.34
2023-05-26T05:20:15.801Z,100410.16
2023-05-26T05:23:21.566Z,100410.53
2023-05-26T05:26:27.747Z,100411.84
2023-05-26T05:29:30.676Z,100409.03
2023-05-26T05:32:33.718Z,100417.50
2023-05-26T05:35:36.378Z,100420.25
2023-05-26T05:38:39.777Z,100421.88
2023-05-26T05:41:42.205Z,100426.47
2023-05-26T05:44:44.997Z,100425.72
2023-05-26T05:47:47.610Z,100421.44
2023-05-26T05:50:50.530Z,100423.34
2023-05-26T05:53:55.523Z,100422.44
2023-05-26T05:57:01.392Z,100431.44
2023-05-26T06:00:09.018Z,100419.50
2023-05-26T06:03:15.940Z,100423.34
2023-05-26T06:06:18.963Z,100420.66
2023-05-26T06:09:22.906Z,100427.47
2023-05-26T06:12:26.519Z,100426.34
2023-05-26T06:15:29.048Z,100422.84
2023-05-26T06:18:33.127Z,100433.03
2023-05-26T06:21:35.939Z,100432.88
2023-05-26T06:24:38.959Z,100433.28
2023-05-26T06:27:41.830Z,100439.06
2023-05-26T06:30:44.979Z,100433.47
2023-05-26T06:33:48.655Z,100430.63
2023-05-26T06:36:52.291Z,100439.69
2023-05-26T06:39:56.007Z,100439.41
2023-05-26T06:43:01.098Z,100435.00
2023-05-26T06:46:04.680Z,100446.22
2023-05-26T06:49:07.656Z,100444.91
2023-05-26T06:52:13.259Z,100441.06
2023-05-26T06:55:17.827Z,100443.91
2023-05-26T06:58:23.426Z,100446.19
2023-05-26T07:01:26.275Z,100447.88
2023-05-26T07:04:29.060Z,100445.34
2023-05-26T07:07:50.101Z,100440.47
2023-05-26T07:10:53.569Z,100449.66
2023-05-26T07:13:56.471Z,100453.03
2023-05-26T07:16:59.390Z,100447.84
2023-05-26T07:20:02.410Z,100443.59
2023-05-26T07:23:09.082Z,100445.78
2023-05-26T07:26:11.704Z,100453.47
2023-05-26T07:29:14.568Z,100445.38
2023-05-26T07:32:18.647Z,100445.47
2023-05-26T07:35:21.877Z,100449.94
2023-05-26T07:38:25.810Z,100446.75
2023-05-26T07:41:28.663Z,100450.25
2023-05-26T07:44:31.063Z,100441.28
2023-05-26T07:47:34.884Z,100439.03
2023-05-26T07:50:37.693Z,100443.59
2023-05-26T07:53:43.749Z,100441.63
2023-05-26T07:56:46.403Z,100450.16
2023-05-26T07:59:49.264Z,100440.31
2023-05-26T08:02:52.126Z,100445.31
2023-05-26T08:05:55.379Z,100446.81
2023-05-26T08:08:58.295Z,100446.50
2023-05-26T08:12:01.267Z,100449.06
2023-05-26T08:15:05.426Z,100448.16
2023-05-26T08:18:08.538Z,100440.78
2023-05-26T08:21:11.353Z,100447.53
2023-05-26T08:24:15.206Z,100439.69
2023-05-26T08:27:17.862Z,100432.72
2023-05-26T08:30:23.267Z,100434.44
2023-05-26T08:33:25.822Z,100433.84
2023-05-26T08:36:28.706Z,100439.25
2023-05-26T08:39:31.294Z,100435.12
2023-05-26T08:42:38.029Z,100428.94
2023-05-26T08:45:42.693Z,100438.06
2023-05-26T08:48:46.053Z,100436.47
2023-05-26T08:52:07.712Z,100438.53
2023-05-26T08:55:10.800Z,100432.19
2023-05-26T08:58:14.327Z,100431.97
2023-05-26T09:01:17.200Z,100434.66
2023-05-26T09:04:20.084Z,100437.03
2023-05-26T09:07:26.691Z,100433.22
2023-05-26T09:10:35.960Z,100420.09
2023-05-26T09:13:41.758Z,100419.63
2023-05-26T09:16:47.731Z,100427.00
2023-05-26T09:19:50.703Z,100417.72
2023-05-26T09:22:57.628Z,100422.94
2023-05-26T09:26:00.510Z,100413.84
2023-05-26T09:29:06.060Z,100414.84
2023-05-26T09:32:10.106Z,100418.81
2023-05-26T09:35:14.940Z,100419.78
2023-05-26T09:38:19.893Z,100407.22
2023-05-26T09:41:22.452Z,100404.44
2023-05-26T09:44:25.644Z,100409.47
2023-05-26T09:47:36.512Z,100407.53
2023-05-26T09:50:40.887Z,100405.03
2023-05-26T09:53:43.296Z,100401.47
2023-05-26T09:56:57.251Z,100396.00
2023-05-26T10:00:03.083Z,100395.19
2023-05-26T10:03:11.360Z,100397.91
2023-05-26T10:06:17.486Z,100390.75
2023-05-26T10:09:23.931Z,100396.16
2023-05-26T10:12:37.020Z,100389.87
2023-05-26T10:15:39.896Z,100391.00
2023-05-26T10:18:43.142Z,100383.03
2023-05-26T10:22:01.755Z,100387.94
2023-05-26T10:25:11.421Z,100384.25
2023-05-26T10:28:29.792Z,100379.84
2023-05-26T10:31:35.580Z,100377.00
2023-05-26T10:34:46.353Z,100375.28
2023-05-26T10:37:56.876Z,100379.97
2023-05-26T10:40:59.437Z,100363.09
2023-05-26T10:44:03.739Z,100376.72
2023-05-26T10:47:09.868Z,100359.09
2023-05-26T10:50:12.593Z,100355.13
2023-05-26T10:53:25.360Z,100355.97
2023-05-26T10:56:46.034Z,100348.87
2023-05-26T10:59:49.129Z,100345.63
2023-05-26T11:02:51.993Z,100349.47
2023-05-26T11:05:57.708Z,100336.75
2023-05-26T11:09:08.764Z,100331.16
2023-05-26T11:12:11.418Z,100333.59
2023-05-26T11:15:26.732Z,100334.19
2023-05-26T11:18:29.413Z,100319.28
2023-05-26T11:21:35.128Z,100322.84
2023-05-26T11:24:38.295Z,100309.03
2023-05-26T11:27:49.384Z,100308.47
2023-05-26T11:30:52.133Z,100309.94
2023-05-26T11:33:56.871Z,100304.13
2023-05-26T11:37:02.386Z,100299.34
2023-05-26T11:40:14.867Z,100303.50
2023-05-26T11:43:17.396Z,100298.63
2023-05-26T11:46:21.351Z,100287.91
2023-05-26T11:49:23.748Z,100288.72
2023-05-26T11:52:26.496Z,100279.81
2023-05-26T11:55:28.924Z,100278.56
2023-05-26T11:58:39.046Z,100275.69
2023-05-26T12:01:41.648Z,100275.16
2023-05-26T12:04:44.812Z,100268.94
2023-05-26T12:08:02.123Z,100270.28
2023-05-26T12:11:13.574Z,100264.34
2023-05-26T12:14:16.762Z,100264.91
2023-05-26T12:17:19.698Z,100250.97
2023-05-26T12:20:37.884Z,100252.69
2023-05-26T12:23:47.358Z,100257.19
2023-05-26T12:26:49.802Z,100251.75
2023-05-26T12:29:55.636Z,100250.84
2023-05-26T12:32:58.628Z,100241.66
2023-05-26T12:36:01.667Z,100238.56
2023-05-26T12:39:05.680Z,100236.87
2023-05-26T12:42:08.414Z,100232.00
2023-05-26T12:45:11.366Z,100229.53
2023-05-26T12:48:17.107Z,100233.34
2023-05-26T12:51:20.167Z,100232.12
2023-05-26T12:54:23.095Z,100222.09
2023-05-26T12:57:25.657Z,100223.72
2023-05-26T13:00:29.724Z,100218.97
2023-05-26T13:03:32.500Z,100220.94
2023-05-26T13:06:37.252Z,100217.41
2023-05-26T13:09:42.498Z,100215.19
2023-05-26T13:12:46.069Z,100211.53
2023-05-26T13:15:48.638Z,100200.84
2023-05-26T13:18:51.372Z,100202.00
2023-05-26T13:21:53.977Z,100202.66
2023-05-26T13:24:56.780Z,100191.97
2023-05-26T13:27:59.373Z,100198.56
2023-05-26T13:31:02.227Z,100195.19
2023-05-26T13:34:04.778Z,100187.31
2023-05-26T13:37:07.581Z,100190.13
2023-05-26T13:40:11.577Z,100193.16
2023-05-26T13:43:14.333Z,100185.03
2023-05-26T13:46:18.020Z,100187.69
2023-05-26T13:49:22.658Z,100183.03
2023-05-26T13:52:25.129Z,100195.41
2023-05-26T13:55:27.979Z,100204.09
2023-05-26T13:58:30.419Z,100193.88
2023-05-26T14:01:37.633Z,100192.19
2023-05-26T14:04:41.846Z,100198.84
2023-05-26T14:07:44.618Z,100186.19
2023-05-26T14:10:48.685Z,100183.00
2023-05-26T14:13:52.192Z,100191.41
2023-05-26T14:16:55.215Z,100182.69
2023-05-26T14:20:07.701Z,100190.06
2023-05-26T14:23:13.074Z,100188.75
2023-05-26T14:26:19.233Z,100188.31
2023-05-26T14:29:23.240Z,100189.56
2023-05-26T14:32:29.254Z,100181.91
2023-05-26T14:35:32.465Z,100178.34
2023-05-26T14:38:35.006Z,100176.84
2023-05-26T14:41:37.801Z,100176.75
2023-05-26T14:44:40.200Z,100187.62
2023-05-26T14:47:42.923Z,100172.81
2023-05-26T14:50:45.314Z,100167.72
2023-05-26T14:53:48.023Z,100174.09
2023-05-26T14:56:52.288Z,100171.91
2023-05-26T14:59:58.261Z,100169.97
2023-05-26T15:03:00.898Z,100172.59
2023-05-26T15:06:07.342Z,100175.53
2023-05-26T15:09:14.307Z,100175.31
2023-05-26T15:12:20.299Z,100167.47
2023-05-26T15:15:23.467Z,100160.47
2023-05-26T15:18:26.948Z,100165.41
2023-05-26T15:21:37.860Z,100167.31
2023-05-26T15:24:41.870Z,100166.94
2023-05-26T15:27:44.349Z,100167.19
2023-05-26T15:30:47.653Z,100162.91
2023-05-26T15:33:50.106Z,100157.97
2023-05-26T15:36:53.232Z,100155.19
2023-05-26T15:39:55.750Z,100159.59
2023-05-26T15:42:58.404Z,100155.69
2023-05-26T15:46:02.832Z,100160.84
2023-05-26T15:49:06.711Z,100155.09
2023-05-26T15:52:10.646Z,100149.72
2023-05-26T15:55:13.743Z,100161.16
2023-05-26T15:58:16.382Z,100164.78
2023-05-26T16:01:20.171Z,100169.47
2023-05-26T16:04:23.194Z,100162.69
2023-05-26T16:07:25.607Z,100152.97
2023-05-26T16:10:28.349Z,100154.22
2023-05-26T16:13:31.235Z,100158.78
2023-05-26T16:16:33.940Z,100162.87
2023-05-26T16:19:36.646Z,100172.19
2023-05-26T16:22:43.173Z,100173.59
2023-05-26T16:25:46.425Z,100177.91
2023-05-26T16:28:49.359Z,100182.22
2023-05-26T16:31:52.050Z,100184.41
2023-05-26T16:34:55.661Z,100182.09
2023-05-26T16:38:01.097Z,100180.47
2023-05-26T16:41:07.085Z,100182.16
2023-05-26T16:44:11.811Z,100188.03
2023-05-26T16:47:17.299Z,100182.31
2023-05-26T16:50:19.752Z,100182.47
2023-05-26T16:53:26.454Z,100178.12
2023-05-26T16:56:28.843Z,100180.56
2023-05-26T16:59:31.470Z,100184.16
2023-05-26T17:02:34.269Z,100185.81
2023-05-26T17:05:37.084Z,100192.16
2023-05-26T17:08:39.742Z,100198.56
2023-05-26T17:11:42.527Z,100202.16
2023-05-26T17:14:44.930Z,100213.94
2023-05-26T17:17:49.383Z,100209.22
2023-05-26T17:20:52.347Z,100216.94
2023-05-26T17:23:55.241Z,100219.87
2023-05-26T17:26:57.647Z,100236.91
2023-05-26T17:30:01.634Z,100251.66
2023-05-26T17:33:04.237Z,100257.37
2023-05-26T17:36:07.436Z,100273.28
2023-05-26T17:39:10.599Z,100281.28
2023-05-26T17:42:13.597Z,100283.44
2023-05-26T17:45:16.058Z,100283.47
2023-05-26T17:48:21.228Z,100303.38
2023-05-26T17:51:23.668Z,100309.47
2023-05-26T17:54:29.576Z,100314.53
2023-05-26T17:57:33.282Z,100318.34
2023-05-26T18:00:36.318Z,100317.44
2023-05-26T18:03:39.088Z,100311.81
2023-05-26T18:06:42.697Z,100321.09
2023-05-26T18:09:45.404Z,100315.34
2023-05-26T18:12:47.822Z,100317.25
2023-05-26T18:15:50.761Z,100315.69
2023-05-26T18:18:53.111Z,100306.66
2023-05-26T18:21:56.763Z,100314.81
2023-05-26T18:24:59.489Z,100310.22
2023-05-26T18:28:02.430Z,100310.78
2023-05-26T18:31:05.156Z,100317.63
2023-05-26T18:34:23.905Z,100311.72
2023-05-26T18:37:27.578Z,100309.16
2023-05-26T18:40:30.448Z,100312.38
2023-05-26T18:43:32.990Z,100315.16
2023-05-26T18:46:35.904Z,100316.38
2023-05-26T18:49:38.494Z,100318.37
2023-05-26T18:52:41.339Z,100318.63
2023-05-26T18:55:43.729Z,100325.47
2023-05-26T18:58:49.173Z,100318.06
2023-05-26T19:01:57.165Z,100318.75
2023-05-26T19:04:59.879Z,100314.25
2023-05-26T19:08:02.409Z,100318.44
2023-05-26T19:11:05.173Z,100317.84
2023-05-26T19:14:07.652Z,100317.00
2023-05-26T19:17:10.447Z,100315.09
2023-05-26T19:20:13.322Z,100314.47
2023-05-26T19:23:16.219Z,100321.09
2023-05-26T19:26:18.815Z,100328.06
2023-05-26T19:29:21.704Z,100321.31
2023-05-26T19:32:24.121Z,100330.28
2023-05-26T19:35:26.890Z,100329.78
2023-05-26T19:38:29.365Z,100330.47
2023-05-26T19:41:32.096Z,100331.47
2023-05-26T19:44:36.160Z,100334.47
2023-05-26T19:47:44.507Z,100327.03
2023-05-26T19:50:46.932Z,100325.41
2023-05-26T19:53:50.173Z,100334.50
2023-05-26T19:56:52.800Z,100339.31
2023-05-26T19:59:55.872Z,100339.84
2023-05-26T20:02:59.177Z,100338.19
2023-05-26T20:06:02.177Z,100338.87
2023-05-26T20:09:05.846Z,100340.53
2023-05-26T20:12:09.348Z,100346.78
2023-05-26T20:15:11.782Z,100338.03
2023-05-26T20:18:14.518Z,100336.66
2023-05-26T20:21:16.972Z,100342.28
2023-05-26T20:24:20.393Z,100345.37
2023-05-26T20:27:22.756Z,100356.28
2023-05-26T20:30:25.676Z,100351.66
2023-05-26T20:33:28.157Z,100361.25
2023-05-26T20:36:37.828Z,100361.88
2023-05-26T20:39:42.164Z,100367.03
2023-05-26T20:42:46.098Z,100362.34
2023-05-26T20:45:51.821Z,100375.72
2023-05-26T20:48:54.526Z,100371.63
2023-05-26T20:51:57.082Z,100375.41
2023-05-26T20:54:59.822Z,100375.78
2023-05-26T20:58:02.653Z,100378.09
2023-05-26T21:01:05.400Z,100380.09
2023-05-26T21:04:08.419Z,100376.00
2023-05-26T21:07:11.431Z,100377.50
2023-05-26T21:10:13.826Z,100381.50
2023-05-26T21:13:16.568Z,100381.16
2023-05-26T21:16:19.034Z,100386.78
2023-05-26T21:19:22.179Z,100383.97
2023-05-26T21:22:24.844Z,100381.97
2023-05-26T21:25:27.902Z,100381.47
2023-05-26T21:28:30.427Z,100385.75
2023-05-26T21:31:33.240Z,100385.25
2023-05-26T21:34:35.683Z,100390.19
2023-05-26T21:37:38.430Z,100388.34
2023-05-26T21:40:40.831Z,100381.41
2023-05-26T21:43:43.704Z,100374.12
2023-05-26T21:46:46.240Z,100370.81
2023-05-26T21:49:49.169Z,100376.81
2023-05-26T21:52:51.604Z,100370.69
2023-05-26T21:55:54.367Z,100383.09
2023-05-26T21:58:59.602Z,100375.34
2023-05-26T22:02:02.301Z,100380.81
2023-05-26T22:05:07.066Z,100373.53
2023-05-26T22:08:09.441Z,100379.13
2023-05-26T22:11:12.161Z,100380.44
2023-05-26T22:14:25.335Z,100384.09
2023-05-26T22:17:28.689Z,100379.28
2023-05-26T22:20:33.619Z,100383.97
2023-05-26T22:23:36.607Z,100384.16
2023-05-26T22:26:39.023Z,100389.75
2023-05-26T22:29:41.758Z,100390.44
2023-05-26T22:32:44.295Z,100387.47
2023-05-26T22:35:47.033Z,100384.16
2023-05-26T22:38:49.427Z,100387.47
2023-05-26T22:41:52.207Z,100386.97
2023-05-26T22:44:54.680Z,100388.16
2023-05-26T22:47:57.581Z,100379.56
2023-05-26T22:51:00.039Z,100387.84
2023-05-26T22:54:02.973Z,100378.56
2023-05-26T22:57:05.528Z,100391.84
2023-05-26T23:00:09.039Z,100383.25
2023-05-26T23:03:11.513Z,100373.00
2023-05-26T23:06:14.392Z,100371.03
2023-05-26T23:09:17.341Z,100378.28
2023-05-26T23:12:20.421Z,100375.31
2023-05-26T23:15:23.022Z,100374.97
2023-05-26T23:18:25.875Z,100383.94
2023-05-26T23:21:28.387Z,100380.78
2023-05-26T23:24:31.329Z,100374.97
2023-05-26T23:27:33.746Z,100382.59
2023-05-26T23:30:36.894Z,100378.81
2023-05-26T23:33:40.822Z,100384.56
2023-05-26T23:36:44.882Z,100383.09
2023-05-26T23:39:47.209Z,100378.63
2023-05-26T23:42:50.006Z,100384.94
2023-05-26T23:45:56.416Z,100393.34
2023-05-26T23:48:59.669Z,100382.78
2023-05-26T23:52:02.091Z,100383.25
2023-05-26T23:55:05.612Z,100383.28
2023-05-26T23:58:08.059Z,100387.75
